createdAt,value
2024-01-29T00:00:17.785Z,47.54
2024-01-29T00:02:45.419Z,48.06
2024-01-29T00:05:11.847Z,47.70
2024-01-29T00:07:38.273Z,47.52
2024-01-29T00:10:06.456Z,48.54
2024-01-29T00:12:33.022Z,48.06
2024-01-29T00:14:59.376Z,47.57
2024-01-29T00:17:25.793Z,48.12
2024-01-29T00:19:52.360Z,48.70
2024-01-29T00:22:18.850Z,48.35
2024-01-29T00:24:45.249Z,49.03
2024-01-29T00:27:11.636Z,47.57
2024-01-29T00:29:38.005Z,47.74
2024-01-29T00:32:04.690Z,47.81
2024-01-29T00:34:31.091Z,47.81
2024-01-29T00:36:57.507Z,47.52
2024-01-29T00:39:23.931Z,47.17
2024-01-29T00:41:51.069Z,47.53
2024-01-29T00:44:18.584Z,47.76
2024-01-29T00:46:45.072Z,47.44
2024-01-29T00:49:11.432Z,46.50
2024-01-29T00:51:37.848Z,47.65
2024-01-29T00:54:04.298Z,46.35
2024-01-29T00:56:30.630Z,46.81
2024-01-29T00:58:56.976Z,47.01
2024-01-29T01:01:23.453Z,46.02
2024-01-29T01:03:49.875Z,46.39
2024-01-29T01:06:16.288Z,46.58
2024-01-29T01:08:42.716Z,46.90
2024-01-29T01:11:09.065Z,46.81
2024-01-29T01:13:35.428Z,46.54
2024-01-29T01:16:01.880Z,46.39
2024-01-29T01:18:28.405Z,45.52
2024-01-29T01:20:54.805Z,45.81
2024-01-29T01:23:21.195Z,45.30
2024-01-29T01:25:47.722Z,45.42
2024-01-29T01:28:14.092Z,45.63
2024-01-29T01:30:40.716Z,45.62
2024-01-29T01:33:07.139Z,46.27
2024-01-29T01:35:33.486Z,45.86
2024-01-29T01:37:59.816Z,46.86
2024-01-29T01:40:26.191Z,46.61
2024-01-29T01:42:52.601Z,46.23
2024-01-29T01:45:19.007Z,46.85
2024-01-29T01:47:45.419Z,46.66
2024-01-29T01:50:11.900Z,47.01
2024-01-29T01:52:39.356Z,46.67
2024-01-29T01:55:06.217Z,46.66
2024-01-29T01:57:33.000Z,46.74
2024-01-29T01:59:59.759Z,46.91
2024-01-29T02:02:26.174Z,46.44
2024-01-29T02:04:52.568Z,46.81
2024-01-29T02:07:19.230Z,46.55
2024-01-29T02:09:46.231Z,47.21
2024-01-29T02:12:12.876Z,46.87
2024-01-29T02:14:39.277Z,46.67
2024-01-29T02:17:05.956Z,45.98
2024-01-29T02:19:32.820Z,46.50
2024-01-29T02:21:59.300Z,45.53
2024-01-29T02:24:25.742Z,45.76
2024-01-29T02:26:52.195Z,45.76
2024-01-29T02:29:18.598Z,46.04
2024-01-29T02:31:45.956Z,46.29
2024-01-29T02:34:12.647Z,46.27
2024-01-29T02:36:39.148Z,46.17
2024-01-29T02:39:05.587Z,46.97
2024-01-29T02:41:34.814Z,45.97
2024-01-29T02:44:02.320Z,46.63
2024-01-29T02:46:28.649Z,45.97
2024-01-29T02:48:55.106Z,46.20
2024-01-29T02:51:21.535Z,46.63
2024-01-29T02:53:47.944Z,46.12
2024-01-29T02:56:14.352Z,46.01
2024-01-29T02:58:40.696Z,46.12
2024-01-29T03:01:07.110Z,46.07
2024-01-29T03:03:33.563Z,46.10
2024-01-29T03:05:59.980Z,46.10
2024-01-29T03:08:26.345Z,46.80
2024-01-29T03:10:52.958Z,47.15
2024-01-29T03:13:19.287Z,46.50
2024-01-29T03:15:46.300Z,46.29
2024-01-29T03:18:12.802Z,46.79
2024-01-29T03:20:39.356Z,46.48
2024-01-29T03:23:05.688Z,47.20
2024-01-29T03:25:32.026Z,46.28
2024-01-29T03:27:58.423Z,46.94
2024-01-29T03:30:24.829Z,46.53
2024-01-29T03:32:52.905Z,47.17
2024-01-29T03:35:19.304Z,46.84
2024-01-29T03:37:45.865Z,47.82
2024-01-29T03:40:12.974Z,47.06
2024-01-29T03:42:39.342Z,46.59
2024-01-29T03:45:06.243Z,47.89
2024-01-29T03:47:32.609Z,48.28
2024-01-29T03:50:00.717Z,48.20
2024-01-29T03:52:27.203Z,48.43
2024-01-29T03:54:54.707Z,48.20
2024-01-29T03:57:22.188Z,48.15
2024-01-29T03:59:48.608Z,48.21
2024-01-29T04:02:15.035Z,47.70
2024-01-29T04:04:44.388Z,48.16
2024-01-29T04:07:10.871Z,47.21
2024-01-29T04:09:37.320Z,48.32
2024-01-29T04:12:03.770Z,47.91
2024-01-29T04:14:30.805Z,47.09
2024-01-29T04:16:57.252Z,47.01
2024-01-29T04:19:24.085Z,46.34
2024-01-29T04:21:50.573Z,46.79
2024-01-29T04:24:17.065Z,47.44
2024-01-29T04:26:43.413Z,47.76
2024-01-29T04:29:10.133Z,47.61
2024-01-29T04:31:36.871Z,46.51
2024-01-29T04:34:04.954Z,46.79
2024-01-29T04:36:32.038Z,46.84
2024-01-29T04:38:59.095Z,47.15
2024-01-29T04:41:25.928Z,46.98
2024-01-29T04:43:52.355Z,47.20
2024-01-29T04:46:18.716Z,46.44
2024-01-29T04:48:45.126Z,46.25
2024-01-29T04:51:12.409Z,47.74
2024-01-29T04:53:40.276Z,46.90
2024-01-29T04:56:07.042Z,46.93
2024-01-29T04:58:33.608Z,46.31
2024-01-29T05:01:00.906Z,46.68
2024-01-29T05:03:27.662Z,46.77
2024-01-29T05:05:54.300Z,46.51
2024-01-29T05:08:20.799Z,45.80
2024-01-29T05:10:47.392Z,46.05
2024-01-29T05:13:15.646Z,45.64
2024-01-29T05:15:42.389Z,46.38
2024-01-29T05:18:08.953Z,46.28
2024-01-29T05:20:35.351Z,45.18
2024-01-29T05:23:01.689Z,45.63
2024-01-29T05:25:28.029Z,44.59
2024-01-29T05:27:54.469Z,45.43
2024-01-29T05:30:20.947Z,45.33
2024-01-29T05:32:47.338Z,45.51
2024-01-29T05:35:14.086Z,45.94
2024-01-29T05:37:40.475Z,45.59
2024-01-29T05:40:08.796Z,46.65
2024-01-29T05:42:35.280Z,46.13
2024-01-29T05:45:01.785Z,46.48
2024-01-29T05:47:28.164Z,46.76
2024-01-29T05:49:54.565Z,44.99
2024-01-29T05:52:20.893Z,45.63
2024-01-29T05:54:47.288Z,45.29
2024-01-29T05:57:13.702Z,46.17
2024-01-29T05:59:40.986Z,46.32
2024-01-29T06:02:07.772Z,46.21
2024-01-29T06:04:34.394Z,45.81
2024-01-29T06:07:00.882Z,44.68
2024-01-29T06:09:27.438Z,45.48
2024-01-29T06:11:55.617Z,46.18
2024-01-29T06:14:22.455Z,45.54
2024-01-29T06:16:48.822Z,44.96
2024-01-29T06:19:20.097Z,44.59
2024-01-29T06:21:47.043Z,44.62
2024-01-29T06:24:13.443Z,44.49
2024-01-29T06:26:41.060Z,45.25
2024-01-29T06:29:07.395Z,45.54
2024-01-29T06:31:33.817Z,45.17
2024-01-29T06:34:00.347Z,45.13
2024-01-29T06:36:26.800Z,44.61
2024-01-29T06:38:53.160Z,45.12
2024-01-29T06:41:23.460Z,45.42
2024-01-29T06:43:53.194Z,45.49
2024-01-29T06:46:20.097Z,45.39
2024-01-29T06:48:46.640Z,45.14
2024-01-29T06:51:13.725Z,45.77
2024-01-29T06:53:40.731Z,45.70
2024-01-29T06:56:07.393Z,45.44
2024-01-29T06:58:37.719Z,45.44
2024-01-29T07:01:05.332Z,45.06
2024-01-29T07:03:32.160Z,44.68
2024-01-29T07:05:58.601Z,44.35
2024-01-29T07:08:25.624Z,45.20
2024-01-29T07:10:52.133Z,44.95
2024-01-29T07:13:18.530Z,44.58
2024-01-29T07:15:44.982Z,45.75
2024-01-29T07:18:11.488Z,45.57
2024-01-29T07:20:42.472Z,45.16
2024-01-29T07:23:09.662Z,44.67
2024-01-29T07:25:36.715Z,44.49
2024-01-29T07:28:06.127Z,43.93
2024-01-29T07:30:32.912Z,44.75
2024-01-29T07:32:59.882Z,44.24
2024-01-29T07:35:26.808Z,45.17
2024-01-29T07:37:53.839Z,44.97
2024-01-29T07:40:20.873Z,44.66
2024-01-29T07:42:47.876Z,44.43
2024-01-29T07:45:15.133Z,44.98
2024-01-29T07:47:41.620Z,45.57
2024-01-29T07:50:08.249Z,45.88
2024-01-29T07:52:34.584Z,46.48
2024-01-29T07:55:01.075Z,45.86
2024-01-29T07:57:27.693Z,46.03
2024-01-29T07:59:54.139Z,45.78
2024-01-29T08:02:20.667Z,45.42
2024-01-29T08:04:47.322Z,45.22
2024-01-29T08:07:13.988Z,45.05
2024-01-29T08:09:40.468Z,44.14
2024-01-29T08:12:07.279Z,45.21
2024-01-29T08:14:33.637Z,44.90
2024-01-29T08:17:00.011Z,44.07
2024-01-29T08:19:28.142Z,44.01
2024-01-29T08:21:54.947Z,44.75
2024-01-29T08:24:21.468Z,44.31
2024-01-29T08:26:48.342Z,44.52
2024-01-29T08:29:14.738Z,44.07
2024-01-29T08:31:42.451Z,43.69
2024-01-29T08:34:09.717Z,43.06
2024-01-29T08:36:36.240Z,44.79
2024-01-29T08:39:02.713Z,44.62
2024-01-29T08:41:29.058Z,43.65
2024-01-29T08:43:55.526Z,44.25
2024-01-29T08:46:21.937Z,43.45
2024-01-29T08:48:48.368Z,43.58
2024-01-29T08:51:14.775Z,43.18
2024-01-29T08:53:41.126Z,44.04
2024-01-29T08:56:11.278Z,43.78
2024-01-29T08:58:37.659Z,44.42
2024-01-29T09:01:04.326Z,43.57
2024-01-29T09:03:30.955Z,43.86
2024-01-29T09:05:57.384Z,44.19
2024-01-29T09:08:23.773Z,43.91
2024-01-29T09:10:50.137Z,44.00
2024-01-29T09:13:16.814Z,43.85
2024-01-29T09:15:43.369Z,43.39
2024-01-29T09:18:09.833Z,44.48
2024-01-29T09:20:36.302Z,44.81
2024-01-29T09:23:02.670Z,44.49
2024-01-29T09:25:29.079Z,44.43
2024-01-29T09:27:55.482Z,43.84
2024-01-29T09:30:21.824Z,43.80
2024-01-29T09:32:48.329Z,43.58
2024-01-29T09:35:14.895Z,43.15
2024-01-29T09:37:42.826Z,43.27
2024-01-29T09:40:13.917Z,43.34
2024-01-29T09:42:42.073Z,43.09
2024-01-29T09:45:11.729Z,42.68
2024-01-29T09:47:38.870Z,42.76
2024-01-29T09:50:09.523Z,42.29
2024-01-29T09:52:38.423Z,42.73
2024-01-29T09:55:06.897Z,42.22
2024-01-29T09:57:33.779Z,42.42
2024-01-29T10:00:00.328Z,42.74
2024-01-29T10:02:27.094Z,42.36
2024-01-29T10:04:53.569Z,41.57
2024-01-29T10:07:20.185Z,41.16
2024-01-29T10:09:46.657Z,41.22
2024-01-29T10:12:23.819Z,41.63
2024-01-29T10:14:50.675Z,42.08
2024-01-29T10:17:17.014Z,42.42
2024-01-29T10:19:45.480Z,41.57
2024-01-29T10:22:13.675Z,42.24
2024-01-29T10:24:40.255Z,41.79
2024-01-29T10:27:08.170Z,41.13
2024-01-29T10:29:36.444Z,41.36
2024-01-29T10:32:02.787Z,42.06
2024-01-29T10:34:29.297Z,42.13
2024-01-29T10:36:57.615Z,41.82
2024-01-29T10:39:24.664Z,41.39
2024-01-29T10:41:52.893Z,41.99
2024-01-29T10:44:20.349Z,41.43
2024-01-29T10:46:47.927Z,40.42
2024-01-29T10:49:15.458Z,41.07
2024-01-29T10:51:42.210Z,41.03
2024-01-29T10:54:09.509Z,42.34
2024-01-29T10:56:36.610Z,41.86
2024-01-29T10:59:04.011Z,41.92
2024-01-29T11:01:32.436Z,42.32
2024-01-29T11:04:00.761Z,41.99
2024-01-29T11:06:57.420Z,43.28
2024-01-29T11:09:25.476Z,42.87
2024-01-29T11:11:52.862Z,42.68
2024-01-29T11:14:25.952Z,42.38
2024-01-29T11:16:53.553Z,42.06
2024-01-29T11:19:25.314Z,41.31
2024-01-29T11:21:52.146Z,41.19
2024-01-29T11:24:22.405Z,42.54
2024-01-29T11:26:48.790Z,43.09
2024-01-29T11:29:19.720Z,42.87
2024-01-29T11:31:46.986Z,42.36
2024-01-29T11:34:15.282Z,43.85
2024-01-29T11:36:41.776Z,42.88
2024-01-29T11:39:15.705Z,42.49
2024-01-29T11:41:48.203Z,42.23
2024-01-29T11:44:16.616Z,42.99
2024-01-29T11:46:43.841Z,41.67
2024-01-29T11:49:10.358Z,42.49
2024-01-29T11:51:38.592Z,43.48
2024-01-29T11:54:05.217Z,42.68
2024-01-29T11:56:31.576Z,43.01
2024-01-29T11:59:04.637Z,42.78
2024-01-29T12:01:34.752Z,43.43
2024-01-29T12:04:02.015Z,43.26
2024-01-29T12:06:29.746Z,42.86
2024-01-29T12:08:58.198Z,42.63
2024-01-29T12:11:26.003Z,42.78
2024-01-29T12:13:56.902Z,43.98
2024-01-29T12:16:24.389Z,42.94
2024-01-29T12:18:51.002Z,42.21
2024-01-29T12:21:17.858Z,42.45
2024-01-29T12:23:45.193Z,43.73
2024-01-29T12:26:13.802Z,44.28
2024-01-29T12:28:40.461Z,43.71
2024-01-29T12:31:07.755Z,43.00
2024-01-29T12:33:36.091Z,43.69
2024-01-29T12:36:17.019Z,43.88
2024-01-29T12:38:45.885Z,44.15
2024-01-29T12:41:12.458Z,43.46
2024-01-29T12:43:39.911Z,43.42
2024-01-29T12:46:11.011Z,43.95
2024-01-29T12:48:37.701Z,44.32
2024-01-29T12:51:06.046Z,44.77
2024-01-29T12:53:32.779Z,44.35
2024-01-29T12:55:59.460Z,45.12
2024-01-29T12:58:26.262Z,44.99
2024-01-29T13:00:52.839Z,46.21
2024-01-29T13:03:19.647Z,45.40
2024-01-29T13:05:46.723Z,45.09
2024-01-29T13:08:13.308Z,45.33
2024-01-29T13:10:40.240Z,45.98
2024-01-29T13:13:08.845Z,45.32
2024-01-29T13:15:35.793Z,45.11
2024-01-29T13:18:02.640Z,47.02
2024-01-29T13:20:29.423Z,46.76
2024-01-29T13:22:55.805Z,46.61
2024-01-29T13:25:22.282Z,46.95
2024-01-29T13:27:49.281Z,46.52
2024-01-29T13:30:15.824Z,46.61
2024-01-29T13:32:42.200Z,46.25
2024-01-29T13:35:09.061Z,46.88
2024-01-29T13:37:35.734Z,46.14
2024-01-29T13:40:02.393Z,45.99
2024-01-29T13:42:28.896Z,46.53
2024-01-29T13:44:58.674Z,47.08
2024-01-29T13:47:28.411Z,47.18
2024-01-29T13:49:55.736Z,47.49
2024-01-29T13:52:22.268Z,47.60
2024-01-29T13:54:48.650Z,47.67
2024-01-29T13:57:15.006Z,47.82
2024-01-29T13:59:41.391Z,48.23
2024-01-29T14:02:07.727Z,48.95
2024-01-29T14:04:34.395Z,47.94
2024-01-29T14:07:01.392Z,47.08
2024-01-29T14:09:29.500Z,47.29
2024-01-29T14:11:56.229Z,47.60
2024-01-29T14:14:25.321Z,48.06
2024-01-29T14:16:56.796Z,48.86
2024-01-29T14:19:23.549Z,48.83
2024-01-29T14:21:50.000Z,49.20
2024-01-29T14:24:16.358Z,48.42
2024-01-29T14:26:42.774Z,49.16
2024-01-29T14:29:09.643Z,50.00
2024-01-29T14:31:36.947Z,48.93
2024-01-29T14:34:05.140Z,48.40
2024-01-29T14:36:31.576Z,48.35
2024-01-29T14:38:58.038Z,49.28
2024-01-29T14:41:27.310Z,49.37
2024-01-29T14:43:54.032Z,49.39
2024-01-29T14:46:22.719Z,49.65
2024-01-29T14:48:49.240Z,49.89
2024-01-29T14:51:16.086Z,50.01
2024-01-29T14:53:45.549Z,49.32
2024-01-29T14:56:12.252Z,49.39
2024-01-29T14:58:38.681Z,49.87
2024-01-29T15:01:05.153Z,48.77
2024-01-29T15:03:32.485Z,48.43
2024-01-29T15:05:59.142Z,49.38
2024-01-29T15:08:25.800Z,48.74
2024-01-29T15:10:54.625Z,49.02
2024-01-29T15:13:21.100Z,50.34
2024-01-29T15:15:47.535Z,50.75
2024-01-29T15:18:13.911Z,49.92
2024-01-29T15:20:40.293Z,49.94
2024-01-29T15:23:06.719Z,49.43
2024-01-29T15:25:33.256Z,49.43
2024-01-29T15:27:59.761Z,49.33
2024-01-29T15:30:26.476Z,49.39
2024-01-29T15:32:52.918Z,49.71
2024-01-29T15:35:19.404Z,49.71
2024-01-29T15:37:45.741Z,49.89
2024-01-29T15:40:12.661Z,49.99
2024-01-29T15:42:39.970Z,49.89
2024-01-29T15:45:07.049Z,50.27
2024-01-29T15:47:33.591Z,50.02
2024-01-29T15:50:00.053Z,50.80
2024-01-29T15:52:26.594Z,50.01
2024-01-29T15:54:52.969Z,50.57
2024-01-29T15:57:19.348Z,50.25
2024-01-29T15:59:46.496Z,49.81
2024-01-29T16:02:12.884Z,50.53
2024-01-29T16:04:39.940Z,50.30
2024-01-29T16:07:07.032Z,50.19
2024-01-29T16:09:33.721Z,50.46
2024-01-29T16:12:00.277Z,50.71
2024-01-29T16:14:27.347Z,50.50
2024-01-29T16:16:54.232Z,51.04
2024-01-29T16:19:20.719Z,50.84
2024-01-29T16:21:47.277Z,50.99
2024-01-29T16:24:13.743Z,51.79
2024-01-29T16:26:40.558Z,51.23
2024-01-29T16:29:07.404Z,50.23
2024-01-29T16:31:34.458Z,50.49
2024-01-29T16:34:01.565Z,50.80
2024-01-29T16:36:28.056Z,51.09
2024-01-29T16:38:54.522Z,51.82
2024-01-29T16:41:24.699Z,50.24
2024-01-29T16:43:52.395Z,51.88
2024-01-29T16:46:19.734Z,50.88
2024-01-29T16:48:46.897Z,50.43
2024-01-29T16:51:21.220Z,50.64
2024-01-29T16:53:47.654Z,50.59
2024-01-29T16:56:13.990Z,51.59
2024-01-29T16:58:40.983Z,50.97
2024-01-29T17:01:07.393Z,50.61
2024-01-29T17:03:33.812Z,51.33
2024-01-29T17:06:01.390Z,52.15
2024-01-29T17:08:29.440Z,52.35
2024-01-29T17:10:55.807Z,51.94
2024-01-29T17:13:22.282Z,52.28
2024-01-29T17:15:48.767Z,52.49
2024-01-29T17:18:15.814Z,52.65
2024-01-29T17:20:42.553Z,52.80
2024-01-29T17:23:08.907Z,53.00
2024-01-29T17:25:35.351Z,52.53
2024-01-29T17:28:01.909Z,52.54
2024-01-29T17:30:28.487Z,52.66
2024-01-29T17:32:55.388Z,52.07
2024-01-29T17:35:21.747Z,52.26
2024-01-29T17:37:48.061Z,52.89
2024-01-29T17:40:14.898Z,53.31
2024-01-29T17:42:41.914Z,53.40
2024-01-29T17:45:08.707Z,53.62
2024-01-29T17:47:37.250Z,53.28
2024-01-29T17:50:08.673Z,53.44
2024-01-29T17:52:36.157Z,53.51
2024-01-29T17:55:04.243Z,53.69
2024-01-29T17:57:32.696Z,53.16
2024-01-29T18:00:00.595Z,53.90
2024-01-29T18:02:28.304Z,53.40
2024-01-29T18:04:59.536Z,53.33
2024-01-29T18:07:27.344Z,53.07
2024-01-29T18:09:56.033Z,52.77
2024-01-29T18:12:24.451Z,52.98
2024-01-29T18:14:52.783Z,52.87
2024-01-29T18:17:25.304Z,53.47
2024-01-29T18:19:56.338Z,53.06
2024-01-29T18:22:24.286Z,53.10
2024-01-29T18:25:03.228Z,53.01
2024-01-29T18:27:29.677Z,53.00
2024-01-29T18:29:56.012Z,53.46
2024-01-29T18:32:22.405Z,53.32
2024-01-29T18:34:50.693Z,53.64
2024-01-29T18:37:17.741Z,53.77
2024-01-29T18:39:44.226Z,53.44
2024-01-29T18:42:12.627Z,54.71
2024-01-29T18:44:39.253Z,54.19
2024-01-29T18:47:05.662Z,54.73
2024-01-29T18:49:32.222Z,54.39
2024-01-29T18:52:03.812Z,53.86
2024-01-29T18:54:30.410Z,54.20
2024-01-29T18:56:56.737Z,53.67
2024-01-29T18:59:23.691Z,54.03
2024-01-29T19:01:50.297Z,53.99
2024-01-29T19:04:16.748Z,53.85
2024-01-29T19:06:43.170Z,53.93
2024-01-29T19:09:11.095Z,53.51
2024-01-29T19:11:41.593Z,54.13
2024-01-29T19:14:08.279Z,53.92
2024-01-29T19:16:34.651Z,53.95
2024-01-29T19:19:01.129Z,54.64
2024-01-29T19:21:27.673Z,53.62
2024-01-29T19:23:54.084Z,53.56
2024-01-29T19:26:20.616Z,53.61
2024-01-29T19:28:46.963Z,53.67
2024-01-29T19:31:15.423Z,53.71
2024-01-29T19:33:43.221Z,53.67
2024-01-29T19:36:09.648Z,53.55
2024-01-29T19:38:36.013Z,53.44
2024-01-29T19:41:02.401Z,53.69
2024-01-29T19:43:28.944Z,53.98
2024-01-29T19:45:55.585Z,53.86
2024-01-29T19:48:21.997Z,53.59
2024-01-29T19:50:49.039Z,53.35
2024-01-29T19:53:15.562Z,53.60
2024-01-29T19:55:41.979Z,53.39
2024-01-29T19:58:08.741Z,53.84
2024-01-29T20:00:35.314Z,53.76
2024-01-29T20:03:03.312Z,54.08
2024-01-29T20:05:29.781Z,54.50
2024-01-29T20:07:56.578Z,54.04
2024-01-29T20:10:23.264Z,53.86
2024-01-29T20:12:51.256Z,54.03
2024-01-29T20:15:18.288Z,53.83
2024-01-29T20:17:45.161Z,53.61
2024-01-29T20:20:16.280Z,53.59
2024-01-29T20:22:45.993Z,53.81
2024-01-29T20:25:12.781Z,53.59
2024-01-29T20:27:40.659Z,54.00
2024-01-29T20:30:08.669Z,54.71
2024-01-29T20:32:37.293Z,53.82
2024-01-29T20:35:09.834Z,54.94
2024-01-29T20:37:36.223Z,54.55
2024-01-29T20:40:04.229Z,55.29
2024-01-29T20:42:30.595Z,55.01
2024-01-29T20:44:57.026Z,54.68
2024-01-29T20:47:24.986Z,54.70
2024-01-29T20:49:52.166Z,54.43
2024-01-29T20:52:18.718Z,54.75
2024-01-29T20:54:46.170Z,54.45
2024-01-29T20:57:13.627Z,54.33
2024-01-29T20:59:39.975Z,54.88
2024-01-29T21:02:06.618Z,54.80
2024-01-29T21:04:33.164Z,54.42
2024-01-29T21:07:04.017Z,54.60
2024-01-29T21:09:30.658Z,54.96
2024-01-29T21:11:57.122Z,55.17
2024-01-29T21:14:24.024Z,55.51
2024-01-29T21:16:50.465Z,55.61
2024-01-29T21:19:16.932Z,55.81
2024-01-29T21:21:43.806Z,55.50
2024-01-29T21:24:10.591Z,56.21
2024-01-29T21:26:37.416Z,54.94
2024-01-29T21:29:03.848Z,57.15
2024-01-29T21:31:30.301Z,56.41
2024-01-29T21:33:57.215Z,56.81
2024-01-29T21:36:23.603Z,55.54
2024-01-29T21:38:49.974Z,56.45
2024-01-29T21:41:16.537Z,56.06
2024-01-29T21:43:42.869Z,55.48
2024-01-29T21:46:09.310Z,55.17
2024-01-29T21:48:35.729Z,55.63
2024-01-29T21:51:02.316Z,55.84
2024-01-29T21:53:28.704Z,54.96
2024-01-29T21:55:56.211Z,55.09
2024-01-29T21:58:24.754Z,55.48
2024-01-29T22:00:51.258Z,56.89
2024-01-29T22:03:17.775Z,55.77
2024-01-29T22:05:44.513Z,55.56
2024-01-29T22:08:11.841Z,55.80
2024-01-29T22:10:38.320Z,54.71
2024-01-29T22:13:06.524Z,55.03
2024-01-29T22:15:33.305Z,54.84
2024-01-29T22:17:59.712Z,54.47
2024-01-29T22:20:26.278Z,54.71
2024-01-29T22:22:52.713Z,55.72
2024-01-29T22:25:19.279Z,54.97
2024-01-29T22:27:46.826Z,55.15
2024-01-29T22:30:13.452Z,55.12
2024-01-29T22:32:39.895Z,55.61
2024-01-29T22:35:07.002Z,55.30
2024-01-29T22:37:34.664Z,55.61
2024-01-29T22:40:01.283Z,55.48
2024-01-29T22:42:27.823Z,56.18
2024-01-29T22:44:54.248Z,55.98
2024-01-29T22:47:21.710Z,56.90
2024-01-29T22:49:48.171Z,55.42
2024-01-29T22:52:15.300Z,55.15
2024-01-29T22:54:42.783Z,55.12
2024-01-29T22:57:09.510Z,55.36
2024-01-29T22:59:36.007Z,55.17
2024-01-29T23:02:02.622Z,55.42
2024-01-29T23:04:30.290Z,55.52
2024-01-29T23:06:56.847Z,55.43
2024-01-29T23:09:23.200Z,56.24
2024-01-29T23:11:49.609Z,55.85
2024-01-29T23:14:16.016Z,56.30
2024-01-29T23:16:42.371Z,55.82
2024-01-29T23:19:08.809Z,55.70
2024-01-29T23:21:35.725Z,56.57
2024-01-29T23:24:02.195Z,55.93
2024-01-29T23:26:28.616Z,56.96
2024-01-29T23:28:55.130Z,56.60
2024-01-29T23:31:22.197Z,56.40
2024-01-29T23:33:48.701Z,56.18
2024-01-29T23:36:16.983Z,56.68
2024-01-29T23:38:43.377Z,56.92
2024-01-29T23:41:09.715Z,57.02
2024-01-29T23:43:36.069Z,57.63
2024-01-29T23:46:02.836Z,56.96
2024-01-29T23:48:29.312Z,56.88
2024-01-29T23:50:55.775Z,56.26
2024-01-29T23:53:22.121Z,56.93
2024-01-29T23:55:48.477Z,57.86
2024-01-29T23:58:14.886Z,57.27
